Time;durP1;ratioP1;P1;durP2;ratioP2;P2;SDS_P1;SDS_P2;PMS_P1;PMS_P2;Temp;Humidity;BMP_temperature;BMP_pressure;BME280_temperature;BME280_humidity;BME280_pressure;Samples;Min_cycle;Max_cycle;Signal;HPM_P1;HPM_P2
2022/01/16 00:01:03;;;;;;;57.03;28.58;;;2.10;99.90;;;;;;5137117;27;20496;-62
2022/01/16 00:06:14;;;;;;;66.70;30.90;;;2.00;99.90;;;;;;5155604;27;20047;-62
2022/01/16 00:08:40;;;;;;;65.50;30.45;;;2.00;99.90;;;;;;5146481;27;20487;-62
2022/01/16 00:11:05;;;;;;;61.97;30.80;;;2.00;99.90;;;;;;5137104;27;20126;-64
2022/01/16 00:13:31;;;;;;;65.45;32.20;;;2.00;99.90;;;;;;5118329;27;20039;-62
2022/01/16 00:15:57;;;;;;;70.25;31.25;;;2.00;99.90;;;;;;5136324;27;20116;-62
2022/01/16 00:18:28;;;;;;;67.30;31.52;;;2.10;99.90;;;;;;5109493;27;20450;-62
2022/01/16 00:20:54;;;;;;;72.80;31.50;;;2.20;99.90;;;;;;5139105;27;20129;-62
2022/01/16 00:23:26;;;;;;;64.00;31.70;;;2.30;99.90;;;;;;5139233;27;20030;-62
2022/01/16 00:25:54;;;;;;;73.72;35.92;;;2.30;99.90;;;;;;5157346;27;20047;-62
2022/01/16 00:28:21;;;;;;;81.90;36.40;;;2.30;99.90;;;;;;5156278;27;20113;-62
2022/01/16 00:30:47;;;;;;;74.75;34.90;;;2.30;99.90;;;;;;5137657;27;20039;-62
2022/01/16 00:33:13;;;;;;;72.00;33.92;;;2.30;99.90;;;;;;5156682;27;20034;-61
2022/01/16 00:35:39;;;;;;;76.90;35.42;;;2.30;99.90;;;;;;5156841;27;20506;-63
2022/01/16 00:38:05;;;;;;;74.75;34.95;;;2.30;99.90;;;;;;5133072;27;20400;-62
2022/01/16 00:40:31;;;;;;;75.30;35.17;;;2.30;99.90;;;;;;5135731;27;20035;-63
2022/01/16 00:42:57;;;;;;;69.38;32.75;;;2.30;99.90;;;;;;5117678;27;20035;-63
2022/01/16 00:45:28;;;;;;;71.85;34.03;;;2.30;99.90;;;;;;5136040;27;20139;-62
2022/01/16 00:47:55;;;;;;;77.50;35.88;;;2.30;99.90;;;;;;5136434;27;20360;-61
2022/01/16 00:50:20;;;;;;;77.28;34.45;;;2.20;99.90;;;;;;5117506;27;20039;-62
2022/01/16 00:52:46;;;;;;;75.90;34.10;;;2.20;99.90;;;;;;5135749;27;20040;-63
2022/01/16 00:55:12;;;;;;;73.22;32.65;;;2.30;99.90;;;;;;5117383;27;20147;-61
2022/01/16 00:57:37;;;;;;;75.55;32.83;;;2.30;99.90;;;;;;5117943;27;20061;-61
2022/01/16 01:00:05;;;;;;;73.70;33.53;;;2.20;99.90;;;;;;5117651;27;20031;-63
2022/01/16 01:02:31;;;;;;;73.70;34.20;;;2.30;99.90;;;;;;5135607;27;20042;-62
2022/01/16 01:04:57;;;;;;;78.47;35.55;;;2.20;99.90;;;;;;5100937;27;20078;-61
2022/01/16 01:07:22;;;;;;;78.07;35.20;;;2.20;99.90;;;;;;5135797;27;20092;-62
2022/01/16 01:09:48;;;;;;;80.93;33.47;;;2.20;99.90;;;;;;5135674;27;20448;-61
2022/01/16 01:12:25;;;;;;;74.45;32.95;;;2.10;99.90;;;;;;5117086;27;20046;-62
2022/01/16 01:15:08;;;;;;;80.38;32.42;;;2.10;99.90;;;;;;5135982;27;20355;-62
2022/01/16 01:17:46;;;;;;;93.45;34.20;;;2.10;99.90;;;;;;5135280;27;20062;-61
2022/01/16 01:20:18;;;;;;;81.45;32.85;;;2.20;99.90;;;;;;5137916;27;20415;-61
2022/01/16 01:22:46;;;;;;;79.53;32.53;;;2.20;99.90;;;;;;5155855;27;20129;-62
2022/01/16 01:25:13;;;;;;;76.10;31.60;;;2.10;99.90;;;;;;5155814;27;20443;-60
2022/01/16 01:27:41;;;;;;;84.82;32.45;;;2.20;99.90;;;;;;5154697;27;20492;-62
2022/01/16 01:30:09;;;;;;;76.38;29.65;;;2.20;99.90;;;;;;5116967;27;20043;-63
2022/01/16 01:32:43;;;;;;;73.45;30.65;;;2.20;99.90;;;;;;5116642;27;20034;-61
2022/01/16 01:35:11;;;;;;;74.10;31.13;;;2.20;99.90;;;;;;5117072;27;20051;-61
2022/01/16 01:37:38;;;;;;;79.30;32.78;;;2.10;99.90;;;;;;5135503;27;20075;-60
2022/01/16 01:40:09;;;;;;;78.38;32.13;;;2.20;99.90;;;;;;5117052;27;20047;-61
2022/01/16 01:42:42;;;;;;;78.57;33.30;;;2.20;99.90;;;;;;5134613;27;20313;-63
2022/01/16 01:51:06;;;;;;;87.63;34.15;;;2.10;99.90;;;;;;5089471;27;20266;-62
2022/01/16 01:53:32;;;;;;;92.07;33.80;;;2.10;99.90;;;;;;5134993;27;20379;-62
2022/01/16 01:55:58;;;;;;;91.72;34.90;;;2.20;99.90;;;;;;5135361;27;20062;-62
2022/01/16 01:58:23;;;;;;;82.30;32.33;;;2.20;99.90;;;;;;5124464;27;20058;-63
2022/01/16 02:00:50;;;;;;;90.85;34.22;;;2.20;99.90;;;;;;5137147;27;20070;-61
2022/01/16 02:03:28;;;;;;;92.57;35.63;;;2.20;99.90;;;;;;5136960;27;20042;-63
2022/01/16 02:05:54;;;;;;;92.82;34.63;;;2.20;99.90;;;;;;5119878;27;20039;-62
2022/01/16 02:08:20;;;;;;;85.18;34.97;;;2.20;99.90;;;;;;5113387;27;20115;-62
2022/01/16 02:10:46;;;;;;;125.45;38.08;;;2.50;99.90;;;;;;5134422;27;20031;-61
2022/01/16 02:13:22;;;;;;;111.38;36.05;;;2.30;99.90;;;;;;5116605;28;20039;-61
2022/01/16 02:32:28;;;;;;;119.28;35.78;;;2.30;99.90;;;;;;5155181;27;20053;-61
2022/01/16 02:34:48;;;;;;;96.65;34.85;;;2.20;99.90;;;;;;5155072;27;20102;-62
2022/01/16 02:37:16;;;;;;;90.95;34.67;;;2.20;99.90;;;;;;5136569;27;20415;-61
2022/01/16 02:39:48;;;;;;;85.97;34.13;;;2.30;99.90;;;;;;5136493;27;20039;-62
2022/01/16 02:42:14;;;;;;;96.50;35.30;;;2.30;99.90;;;;;;5155213;27;20069;-63
2022/01/16 02:44:48;;;;;;;90.00;32.70;;;2.30;99.90;;;;;;5136811;27;20462;-61
2022/01/16 02:47:19;;;;;;;93.57;33.13;;;2.30;99.90;;;;;;5137063;27;20054;-61
2022/01/16 02:49:48;;;;;;;117.60;35.15;;;2.30;99.90;;;;;;5136388;27;20336;-62
2022/01/16 02:52:16;;;;;;;101.53;34.75;;;2.30;99.90;;;;;;5134028;28;20530;-62
2022/01/16 02:54:44;;;;;;;126.05;36.58;;;2.30;99.90;;;;;;5117864;27;20046;-62
2022/01/16 02:57:12;;;;;;;92.80;35.25;;;2.30;99.90;;;;;;5138263;27;20348;-62
2022/01/16 02:59:39;;;;;;;87.72;35.90;;;2.30;99.90;;;;;;5120200;27;20131;-62
2022/01/16 03:02:06;;;;;;;84.03;33.50;;;2.30;99.90;;;;;;5119630;27;20099;-62
2022/01/16 03:04:32;;;;;;;90.82;33.15;;;2.30;99.90;;;;;;5119632;27;20092;-61
2022/01/16 03:07:03;;;;;;;105.95;36.10;;;2.30;99.90;;;;;;5120265;27;20047;-62
2022/01/16 03:09:40;;;;;;;89.63;32.85;;;2.30;99.90;;;;;;5138614;27;20472;-62
2022/01/16 03:12:09;;;;;;;93.32;32.90;;;2.30;99.90;;;;;;5119629;27;20071;-62
2022/01/16 03:14:35;;;;;;;89.65;33.67;;;2.40;99.90;;;;;;5119656;27;20039;-61
2022/01/16 03:17:00;;;;;;;92.10;34.20;;;2.40;99.90;;;;;;5119489;27;20065;-61
2022/01/16 03:22:10;;;;;;;85.10;33.65;;;2.40;99.90;;;;;;5158640;27;20043;-62
2022/01/16 03:24:39;;;;;;;89.97;33.97;;;2.50;99.90;;;;;;5140508;27;20074;-62
2022/01/16 03:27:06;;;;;;;82.72;34.53;;;2.40;99.90;;;;;;5140114;27;20046;-62
2022/01/16 03:29:32;;;;;;;93.78;35.03;;;2.40;99.90;;;;;;5123372;27;20047;-61
2022/01/16 03:31:59;;;;;;;93.20;33.58;;;2.40;99.90;;;;;;5085556;27;20039;-61
2022/01/16 03:34:25;;;;;;;86.43;34.92;;;2.50;99.90;;;;;;5119487;27;20053;-62
2022/01/16 03:36:51;;;;;;;79.10;31.63;;;2.50;99.90;;;;;;5137648;27;20046;-61
2022/01/16 03:39:17;;;;;;;79.97;33.30;;;2.60;99.90;;;;;;5138310;27;20039;-61
2022/01/16 03:41:44;;;;;;;84.90;33.72;;;2.60;99.90;;;;;;5137538;27;20480;-63
2022/01/16 03:44:09;;;;;;;97.45;36.72;;;2.70;99.90;;;;;;5119287;27;20035;-62
2022/01/16 03:46:39;;;;;;;99.25;35.92;;;2.70;99.90;;;;;;5119095;27;20095;-61
2022/01/16 03:49:09;;;;;;;89.60;35.70;;;2.70;99.90;;;;;;5131228;27;20035;-61
2022/01/16 03:51:36;;;;;;;83.70;34.13;;;2.80;99.90;;;;;;5139294;27;20046;-61
2022/01/16 03:54:04;;;;;;;82.05;32.47;;;2.80;99.90;;;;;;5158126;27;20035;-62
2022/01/16 03:56:30;;;;;;;85.10;34.03;;;2.80;99.90;;;;;;5158139;27;20042;-62
2022/01/16 03:58:56;;;;;;;86.60;33.05;;;2.80;99.90;;;;;;5156940;27;20034;-63
2022/01/16 04:01:24;;;;;;;78.50;31.42;;;2.80;99.90;;;;;;5122418;27;20057;-62
2022/01/16 04:03:50;;;;;;;87.32;34.17;;;2.90;99.90;;;;;;5139372;27;20463;-61
2022/01/16 04:06:16;;;;;;;85.22;34.28;;;2.80;99.90;;;;;;5157424;27;20408;-61
2022/01/16 04:08:42;;;;;;;88.90;33.10;;;2.90;99.90;;;;;;5157685;27;20162;-60
2022/01/16 04:11:08;;;;;;;87.95;34.83;;;2.90;99.90;;;;;;5157970;27;20465;-61
2022/01/16 04:13:34;;;;;;;80.72;34.80;;;2.90;99.90;;;;;;5157761;27;20381;-61
2022/01/16 04:15:59;;;;;;;84.30;33.50;;;2.90;99.90;;;;;;5157483;27;20093;-61
2022/01/16 04:18:25;;;;;;;76.30;32.63;;;2.90;99.90;;;;;;5150977;27;20042;-61
2022/01/16 04:20:51;;;;;;;94.55;35.72;;;2.90;99.90;;;;;;5136999;27;20331;-62
2022/01/16 04:23:16;;;;;;;83.40;33.83;;;2.80;99.90;;;;;;5118418;27;20463;-61
2022/01/16 04:25:42;;;;;;;87.00;34.72;;;2.90;99.90;;;;;;5118579;27;20046;-62
2022/01/16 04:28:08;;;;;;;83.45;34.78;;;2.90;99.90;;;;;;5123335;27;20066;-62
2022/01/16 04:30:34;;;;;;;79.88;34.67;;;2.90;99.90;;;;;;5138890;27;20367;-61
2022/01/16 04:32:59;;;;;;;92.88;36.20;;;3.00;99.90;;;;;;5157443;27;20087;-62
2022/01/16 04:35:25;;;;;;;94.78;35.72;;;3.00;99.90;;;;;;5157509;27;20034;-61
2022/01/16 04:37:51;;;;;;;90.13;35.53;;;3.00;99.90;;;;;;5137834;27;20171;-63
2022/01/16 04:40:17;;;;;;;76.13;31.58;;;3.00;99.90;;;;;;5118327;27;20080;-61
2022/01/16 04:45:30;;;;;;;86.73;34.77;;;3.00;99.90;;;;;;5136064;27;20130;-62
2022/01/16 04:47:55;;;;;;;86.22;34.80;;;3.00;99.90;;;;;;5137973;27;20081;-61
2022/01/16 04:50:22;;;;;;;92.88;36.33;;;3.00;99.90;;;;;;5138582;27;20038;-61
2022/01/16 04:52:49;;;;;;;77.32;31.77;;;3.00;99.90;;;;;;5156470;27;20031;-63
2022/01/16 04:55:16;;;;;;;83.90;35.85;;;3.10;99.90;;;;;;5156754;27;20034;-61
2022/01/16 04:57:42;;;;;;;87.30;33.50;;;3.10;99.90;;;;;;5156925;27;20035;-62
2022/01/16 05:00:13;;;;;;;88.30;34.13;;;3.10;99.90;;;;;;5157202;27;20043;-62
2022/01/16 05:02:40;;;;;;;93.93;33.78;;;3.20;99.90;;;;;;5156983;27;20114;-63
2022/01/16 05:05:07;;;;;;;86.40;33.10;;;3.30;99.90;;;;;;5138289;27;20093;-62
2022/01/16 05:07:33;;;;;;;97.75;35.58;;;3.20;99.90;;;;;;5138245;27;20042;-63
2022/01/16 05:09:58;;;;;;;94.68;35.58;;;3.20;99.90;;;;;;5137001;27;20045;-63
2022/01/16 05:12:31;;;;;;;88.88;34.58;;;3.20;99.90;;;;;;5117791;27;20051;-60
2022/01/16 05:17:40;;;;;;;99.93;36.25;;;3.20;99.90;;;;;;5135121;27;20053;-62
2022/01/16 05:20:06;;;;;;;103.07;36.15;;;3.20;99.90;;;;;;5135761;27;20118;-61
2022/01/16 05:22:32;;;;;;;104.50;38.42;;;3.20;99.90;;;;;;5135580;27;20058;-61
2022/01/16 05:24:58;;;;;;;105.72;38.97;;;3.20;99.90;;;;;;5117402;27;20082;-62
2022/01/16 05:27:23;;;;;;;92.32;33.97;;;3.30;99.90;;;;;;5135872;27;20039;-61
2022/01/16 05:29:49;;;;;;;101.07;34.70;;;3.30;99.90;;;;;;5131874;27;20451;-62
2022/01/16 05:32:16;;;;;;;88.30;33.35;;;3.30;99.90;;;;;;5117479;27;20043;-61
2022/01/16 05:34:42;;;;;;;96.32;35.58;;;3.30;99.90;;;;;;5135575;27;20039;-61
2022/01/16 05:37:08;;;;;;;100.45;35.08;;;3.40;99.90;;;;;;5116927;27;20039;-64
2022/01/16 05:39:34;;;;;;;91.45;36.35;;;3.40;99.90;;;;;;5117359;27;20035;-61
2022/01/16 05:42:00;;;;;;;100.13;36.00;;;3.40;99.90;;;;;;5135512;27;20071;-62
2022/01/16 05:44:26;;;;;;;104.88;36.60;;;3.40;99.90;;;;;;5116849;27;20471;-63
2022/01/16 05:46:52;;;;;;;108.50;38.08;;;3.40;99.90;;;;;;5099860;27;20058;-62
2022/01/16 05:49:17;;;;;;;99.28;35.97;;;3.30;99.90;;;;;;5147923;27;20045;-62
2022/01/16 05:51:43;;;;;;;102.30;36.88;;;3.30;99.90;;;;;;5155911;27;20056;-62
2022/01/16 05:54:09;;;;;;;94.60;35.03;;;3.40;99.90;;;;;;5137967;27;20042;-63
2022/01/16 05:56:37;;;;;;;90.80;35.35;;;3.40;99.90;;;;;;5155674;27;20376;-62
2022/01/16 05:59:03;;;;;;;94.10;35.30;;;3.50;99.90;;;;;;5156005;27;20034;-62
2022/01/16 06:01:28;;;;;;;91.30;35.83;;;3.50;99.90;;;;;;5137441;27;20102;-63
2022/01/16 06:03:54;;;;;;;94.85;34.65;;;3.50;99.90;;;;;;5137477;27;20124;-63
2022/01/16 06:06:20;;;;;;;88.30;33.92;;;3.50;99.90;;;;;;5137560;27;20050;-62
2022/01/16 06:08:45;;;;;;;92.75;35.20;;;3.50;99.90;;;;;;5155114;27;20034;-61
2022/01/16 06:11:11;;;;;;;96.47;36.35;;;3.60;99.90;;;;;;5155629;27;20039;-61
2022/01/16 06:13:37;;;;;;;98.68;37.20;;;3.60;99.90;;;;;;5137180;27;20050;-60
2022/01/16 06:16:03;;;;;;;89.10;33.47;;;3.60;99.90;;;;;;5155144;27;20061;-61
2022/01/16 06:18:29;;;;;;;94.45;35.50;;;3.70;99.90;;;;;;5130931;28;20031;-62
2022/01/16 06:20:55;;;;;;;99.88;36.22;;;3.70;99.90;;;;;;5116453;28;20464;-61
2022/01/16 06:23:20;;;;;;;99.22;37.50;;;3.70;99.90;;;;;;5116285;28;20046;-61
2022/01/16 06:25:46;;;;;;;84.93;33.67;;;3.70;99.90;;;;;;5134924;27;20035;-62
2022/01/16 06:28:12;;;;;;;101.80;37.50;;;3.70;99.90;;;;;;5120883;27;20385;-62
2022/01/16 06:30:37;;;;;;;95.90;35.47;;;3.70;99.90;;;;;;5159740;27;20134;-61
2022/01/16 06:33:05;;;;;;;91.78;36.08;;;3.70;99.90;;;;;;5159922;27;20121;-62
2022/01/16 06:35:31;;;;;;;94.72;36.33;;;3.70;99.90;;;;;;5159523;27;20042;-62
2022/01/16 06:37:56;;;;;;;93.47;35.40;;;3.80;99.90;;;;;;5158530;27;20356;-62
2022/01/16 06:40:22;;;;;;;92.53;34.15;;;3.80;99.90;;;;;;5141466;27;20047;-61
2022/01/16 06:42:48;;;;;;;92.35;34.42;;;3.80;99.90;;;;;;5141041;27;20442;-62
2022/01/16 06:45:14;;;;;;;107.80;39.08;;;3.80;99.90;;;;;;5141016;27;20069;-63
2022/01/16 06:47:40;;;;;;;92.78;35.60;;;3.80;99.90;;;;;;5124123;27;20188;-63
2022/01/16 06:50:08;;;;;;;93.50;36.30;;;3.90;99.90;;;;;;5139849;27;20049;-63
2022/01/16 06:52:34;;;;;;;88.00;33.25;;;3.90;99.90;;;;;;5140991;27;20316;-62
2022/01/16 06:55:00;;;;;;;91.45;35.10;;;3.90;99.90;;;;;;5159670;27;20034;-62
2022/01/16 06:57:25;;;;;;;90.13;35.78;;;4.00;99.90;;;;;;5159535;27;20483;-62
2022/01/16 06:59:51;;;;;;;97.60;35.92;;;4.00;99.90;;;;;;5141434;27;20043;-61
2022/01/16 07:02:17;;;;;;;97.93;36.33;;;4.00;99.90;;;;;;5138403;27;20031;-63
2022/01/16 07:04:44;;;;;;;98.78;37.22;;;4.00;99.90;;;;;;5103064;27;20352;-62
2022/01/16 07:07:10;;;;;;;92.90;35.95;;;4.00;99.90;;;;;;5138194;27;20168;-63
2022/01/16 07:09:35;;;;;;;78.50;33.67;;;4.00;99.90;;;;;;5139098;27;20448;-61
2022/01/16 07:12:01;;;;;;;85.03;36.00;;;4.00;99.90;;;;;;5119717;27;20046;-62
2022/01/16 07:14:27;;;;;;;87.75;35.05;;;4.10;99.90;;;;;;5138216;27;20031;-62
2022/01/16 07:16:52;;;;;;;97.43;36.88;;;4.10;99.90;;;;;;5102806;27;20081;-63
2022/01/16 07:19:18;;;;;;;89.88;35.83;;;4.20;99.90;;;;;;5138608;27;20363;-62
2022/01/16 07:21:43;;;;;;;89.05;36.90;;;4.30;99.90;;;;;;5137505;27;20455;-63
2022/01/16 07:24:15;;;;;;;99.38;37.08;;;4.10;99.90;;;;;;5119441;27;20039;-62
2022/01/16 07:26:44;;;;;;;95.18;37.75;;;4.10;99.90;;;;;;5137978;27;20043;-62
2022/01/16 07:29:10;;;;;;;94.82;36.00;;;4.10;99.90;;;;;;5148999;27;20050;-63
2022/01/16 07:31:38;;;;;;;99.30;37.40;;;4.10;99.90;;;;;;5138923;27;20114;-62
2022/01/16 07:34:05;;;;;;;87.57;36.50;;;4.10;99.90;;;;;;5158462;27;20050;-62
2022/01/16 07:36:31;;;;;;;94.93;36.53;;;4.10;99.90;;;;;;5140217;27;20074;-62
2022/01/16 07:38:57;;;;;;;81.57;35.25;;;4.10;99.90;;;;;;5130562;27;20411;-63
2022/01/16 07:41:22;;;;;;;97.07;36.35;;;4.20;99.90;;;;;;5137016;27;20047;-62
2022/01/16 07:43:48;;;;;;;86.20;35.42;;;4.20;99.90;;;;;;5119319;27;20064;-62
2022/01/16 07:46:16;;;;;;;90.20;35.42;;;4.20;99.90;;;;;;5137747;27;20035;-62
2022/01/16 07:48:41;;;;;;;83.50;35.67;;;4.20;99.90;;;;;;5151251;27;20118;-62
2022/01/16 07:51:07;;;;;;;87.07;35.63;;;4.30;99.90;;;;;;5156627;27;20110;-63
2022/01/16 07:53:34;;;;;;;85.15;35.65;;;4.30;99.90;;;;;;5134685;27;20078;-62
2022/01/16 07:55:59;;;;;;;80.68;36.13;;;4.30;99.90;;;;;;5137608;27;20355;-62
2022/01/16 07:58:25;;;;;;;87.53;36.65;;;4.40;99.90;;;;;;5149398;27;20125;-62
2022/01/16 08:00:51;;;;;;;92.50;37.35;;;4.40;99.90;;;;;;5149629;27;20086;-62
2022/01/16 08:03:16;;;;;;;81.15;35.05;;;4.40;99.90;;;;;;5136366;27;20364;-62
2022/01/16 08:05:42;;;;;;;85.80;36.97;;;4.40;99.90;;;;;;5138595;27;20046;-62
2022/01/16 08:08:08;;;;;;;83.65;34.75;;;4.50;99.90;;;;;;5136925;27;20195;-63
2022/01/16 08:10:33;;;;;;;75.72;33.88;;;4.60;99.90;;;;;;5133296;27;20027;-62
2022/01/16 08:12:59;;;;;;;75.22;33.40;;;4.60;99.90;;;;;;5155691;27;20510;-62
2022/01/16 08:15:25;;;;;;;70.13;33.88;;;4.60;99.90;;;;;;5152521;27;20072;-62
2022/01/16 08:17:51;;;;;;;76.40;35.55;;;4.60;99.90;;;;;;5135942;27;20053;-62
2022/01/16 08:20:17;;;;;;;74.72;34.53;;;4.60;99.90;;;;;;5133370;27;20057;-62
2022/01/16 08:22:45;;;;;;;72.18;32.70;;;4.60;99.90;;;;;;5156535;27;20103;-61
2022/01/16 08:25:11;;;;;;;68.95;31.67;;;4.60;99.90;;;;;;5157296;27;20050;-62
2022/01/16 08:27:37;;;;;;;72.93;33.25;;;4.60;99.90;;;;;;5120902;27;20026;-62
2022/01/16 08:30:04;;;;;;;68.90;33.17;;;4.70;99.90;;;;;;5150657;27;20034;-62
2022/01/16 08:32:30;;;;;;;68.82;33.20;;;4.70;99.90;;;;;;5135916;27;20205;-62
2022/01/16 08:34:56;;;;;;;66.32;32.75;;;4.60;99.90;;;;;;5156661;27;20458;-63
2022/01/16 08:37:21;;;;;;;66.45;33.35;;;4.70;99.90;;;;;;5118126;27;20043;-61
2022/01/16 08:39:47;;;;;;;62.72;31.80;;;4.70;99.90;;;;;;5149587;27;20039;-62
2022/01/16 08:42:13;;;;;;;64.93;32.47;;;4.70;99.90;;;;;;5134849;27;20049;-63
2022/01/16 08:44:38;;;;;;;60.80;31.77;;;4.80;99.90;;;;;;5156749;27;20126;-62
2022/01/16 08:47:06;;;;;;;67.40;31.63;;;4.80;99.90;;;;;;5138120;27;20049;-62
2022/01/16 08:49:33;;;;;;;70.22;32.17;;;4.80;99.90;;;;;;5134207;27;20042;-62
2022/01/16 08:52:02;;;;;;;67.70;31.55;;;4.80;99.90;;;;;;5127228;27;20023;-62
2022/01/16 08:54:28;;;;;;;69.45;32.85;;;4.80;99.90;;;;;;5155645;27;20469;-61
2022/01/16 08:56:54;;;;;;;64.55;32.65;;;4.80;99.90;;;;;;5138163;27;20114;-63
2022/01/16 08:59:19;;;;;;;61.95;31.00;;;4.90;99.90;;;;;;5145032;27;20043;-62
2022/01/16 09:01:45;;;;;;;66.35;31.70;;;4.90;99.90;;;;;;5117671;27;20050;-62
2022/01/16 09:04:11;;;;;;;61.10;31.65;;;4.90;99.90;;;;;;5117644;27;20150;-62
2022/01/16 09:06:36;;;;;;;60.47;30.55;;;4.90;99.90;;;;;;5117686;27;20039;-62
2022/01/16 09:09:03;;;;;;;62.38;31.05;;;4.90;99.90;;;;;;5145300;27;20035;-62
2022/01/16 09:11:28;;;;;;;61.80;31.60;;;5.00;99.90;;;;;;5156319;27;20372;-62
2022/01/16 09:13:54;;;;;;;62.45;31.63;;;5.00;99.90;;;;;;5138442;27;20041;-62
2022/01/16 09:16:21;;;;;;;62.08;30.25;;;5.00;99.90;;;;;;5134501;27;20066;-62
2022/01/16 09:18:48;;;;;;;58.28;31.38;;;5.00;99.90;;;;;;5129286;27;20036;-62
2022/01/16 09:21:18;;;;;;;56.22;29.40;;;5.00;99.90;;;;;;5113656;28;20051;-62
2022/01/16 09:23:45;;;;;;;57.45;29.75;;;5.10;99.90;;;;;;5114341;28;20138;-64
2022/01/16 09:26:10;;;;;;;50.40;28.50;;;5.10;99.90;;;;;;5114672;28;20104;-62
2022/01/16 09:28:36;;;;;;;58.97;31.85;;;5.10;99.90;;;;;;5113884;27;20358;-62
2022/01/16 09:31:01;;;;;;;56.13;32.30;;;5.20;99.90;;;;;;5116487;27;20032;-61
2022/01/16 09:33:28;;;;;;;58.53;30.90;;;5.20;99.90;;;;;;5130656;27;20062;-62
2022/01/16 09:35:54;;;;;;;55.42;30.02;;;5.20;99.90;;;;;;5130790;27;20061;-62
2022/01/16 09:38:22;;;;;;;51.42;27.00;;;5.20;99.90;;;;;;5123474;27;20046;-62
2022/01/16 09:40:48;;;;;;;55.78;28.25;;;5.20;99.90;;;;;;5130942;27;20451;-62
2022/01/16 09:43:16;;;;;;;52.10;29.30;;;5.20;99.90;;;;;;5119853;27;20036;-64
2022/01/16 09:45:41;;;;;;;48.40;28.00;;;5.30;99.90;;;;;;5130169;27;20032;-62
2022/01/16 09:48:07;;;;;;;52.53;28.90;;;5.30;99.90;;;;;;5103902;27;20455;-62
2022/01/16 09:50:34;;;;;;;55.70;28.15;;;5.30;99.90;;;;;;5134692;27;20100;-62
2022/01/16 09:53:00;;;;;;;54.83;28.95;;;5.30;99.90;;;;;;5134447;27;20027;-62
2022/01/16 09:55:26;;;;;;;48.15;27.33;;;5.30;99.90;;;;;;5116630;27;20039;-62
2022/01/16 09:57:55;;;;;;;44.88;25.65;;;5.40;99.90;;;;;;5133657;27;20107;-63
2022/01/16 10:00:24;;;;;;;42.70;25.05;;;5.40;99.90;;;;;;5113548;28;20361;-62
2022/01/16 10:02:51;;;;;;;42.72;24.80;;;5.40;99.90;;;;;;5113877;28;20043;-62
2022/01/16 10:05:29;;;;;;;38.03;21.13;;;5.40;99.90;;;;;;5112812;28;20046;-62
2022/01/16 10:08:00;;;;;;;46.15;23.80;;;5.50;99.90;;;;;;5113172;28;20043;-62
2022/01/16 10:10:35;;;;;;;40.17;22.15;;;5.50;99.90;;;;;;5112673;28;20413;-62
2022/01/16 10:13:38;;;;;;;47.03;24.15;;;5.60;99.90;;;;;;5113927;28;20067;-61
2022/01/16 10:16:04;;;;;;;35.17;22.20;;;5.60;99.90;;;;;;5112932;28;20139;-62
2022/01/16 10:18:36;;;;;;;38.03;21.35;;;5.60;99.90;;;;;;5117542;28;20118;-62
2022/01/16 10:21:03;;;;;;;37.40;20.65;;;5.60;99.90;;;;;;5133389;28;20086;-63
2022/01/16 10:23:29;;;;;;;34.30;19.98;;;5.70;99.90;;;;;;5134218;28;20039;-62
2022/01/16 10:25:54;;;;;;;31.08;17.77;;;5.70;99.90;;;;;;5134289;28;20337;-62
2022/01/16 10:28:22;;;;;;;29.90;17.38;;;5.80;99.90;;;;;;5130763;28;20372;-62
2022/01/16 10:30:51;;;;;;;30.92;16.80;;;5.80;99.90;;;;;;5112613;28;20348;-62
2022/01/16 10:33:19;;;;;;;30.38;16.33;;;5.90;99.90;;;;;;5113936;28;20046;-61
2022/01/16 10:35:47;;;;;;;26.85;16.50;;;5.90;99.90;;;;;;5095767;28;20036;-64
2022/01/16 10:38:22;;;;;;;26.33;16.13;;;6.00;99.90;;;;;;5114275;28;20035;-63
2022/01/16 10:40:50;;;;;;;30.95;15.57;;;6.00;99.90;;;;;;5134417;27;20114;-62
2022/01/16 10:43:37;;;;;;;26.23;15.52;;;6.00;99.90;;;;;;5116037;28;20046;-62
2022/01/16 10:46:03;;;;;;;25.13;14.60;;;6.00;99.90;;;;;;5134333;27;20043;-61
2022/01/16 10:48:28;;;;;;;30.13;15.77;;;6.10;99.90;;;;;;5133057;28;20035;-63
2022/01/16 10:50:57;;;;;;;26.48;14.70;;;6.20;99.90;;;;;;5134095;28;20039;-62
2022/01/16 10:53:25;;;;;;;27.33;13.73;;;6.20;99.90;;;;;;5134294;28;20050;-61
2022/01/16 10:55:56;;;;;;;23.98;13.63;;;6.20;99.90;;;;;;5132800;28;20031;-62
2022/01/16 10:58:28;;;;;;;25.83;14.18;;;6.30;99.90;;;;;;5131681;28;20107;-64
2022/01/16 11:01:05;;;;;;;26.50;14.55;;;6.40;99.90;;;;;;5133563;27;20043;-64
2022/01/16 11:03:47;;;;;;;25.75;13.32;;;6.40;99.90;;;;;;5134105;28;20110;-62
2022/01/16 11:06:15;;;;;;;24.05;12.32;;;6.40;99.90;;;;;;5113225;28;20046;-62
2022/01/16 11:09:03;;;;;;;26.92;13.45;;;6.30;99.90;;;;;;5132318;28;20027;-64
2022/01/16 11:11:29;;;;;;;19.83;12.48;;;6.30;99.90;;;;;;5112874;28;20047;-64
2022/01/16 11:13:56;;;;;;;21.50;12.65;;;6.30;99.90;;;;;;5113268;28;20417;-62
2022/01/16 11:16:23;;;;;;;22.40;11.95;;;6.40;99.90;;;;;;5097312;28;20360;-63
2022/01/16 11:18:51;;;;;;;23.27;11.80;;;6.40;99.90;;;;;;5113899;27;20046;-62
2022/01/16 11:21:34;;;;;;;21.10;11.32;;;6.50;99.90;;;;;;5131229;27;20363;-62
2022/01/16 11:24:23;;;;;;;20.73;11.63;;;6.50;99.90;;;;;;5130746;27;20054;-62
2022/01/16 11:26:48;;;;;;;19.92;10.23;;;6.50;99.90;;;;;;5121746;27;20055;-64
2022/01/16 11:29:14;;;;;;;21.55;11.27;;;6.60;99.90;;;;;;5137160;27;20120;-63
2022/01/16 11:31:43;;;;;;;17.05;9.98;;;6.60;99.90;;;;;;5136668;27;20189;-63
2022/01/16 11:34:09;;;;;;;17.02;9.80;;;6.60;99.90;;;;;;5137447;27;20106;-63
2022/01/16 11:36:35;;;;;;;18.08;9.18;;;6.60;99.90;;;;;;5118629;27;20470;-63
2022/01/16 11:39:05;;;;;;;20.13;9.00;;;6.70;99.90;;;;;;5110263;27;20356;-62
2022/01/16 11:41:39;;;;;;;23.50;8.57;;;6.70;99.90;;;;;;5108076;27;20456;-64
2022/01/16 11:44:26;;;;;;;15.70;7.43;;;6.80;99.90;;;;;;5129824;27;20031;-62
2022/01/16 11:46:55;;;;;;;20.52;7.88;;;6.90;99.90;;;;;;5099933;27;20111;-64
2022/01/16 11:49:51;;;;;;;20.35;8.23;;;6.90;99.90;;;;;;5126624;27;20704;-62
2022/01/16 11:52:21;;;;;;;17.13;6.97;;;7.00;99.90;;;;;;5115444;27;20047;-64
2022/01/16 11:54:51;;;;;;;21.52;7.15;;;7.10;99.90;;;;;;5098354;28;20071;-63
2022/01/16 11:57:31;;;;;;;19.05;7.25;;;7.10;99.90;;;;;;5104579;27;20122;-64
2022/01/16 12:00:16;;;;;;;16.10;6.70;;;7.20;99.90;;;;;;5131432;27;20405;-64
2022/01/16 12:02:44;;;;;;;24.95;8.18;;;7.30;99.90;;;;;;5127198;27;20035;-64
2022/01/16 12:05:19;;;;;;;23.42;7.97;;;7.40;99.90;;;;;;5128898;27;20337;-65
2022/01/16 12:07:47;;;;;;;20.52;8.25;;;7.40;99.90;;;;;;5133127;27;20399;-63
2022/01/16 12:10:34;;;;;;;17.95;6.90;;;7.40;99.90;;;;;;5091631;28;20487;-63
2022/01/16 12:13:00;;;;;;;22.15;8.02;;;7.50;99.90;;;;;;5116055;28;20040;-62
2022/01/16 12:15:27;;;;;;;19.50;7.65;;;7.50;99.90;;;;;;5118414;27;20065;-63
2022/01/16 12:17:52;;;;;;;19.65;8.27;;;7.50;99.90;;;;;;5135182;27;20058;-63
2022/01/16 12:20:27;;;;;;;18.10;7.50;;;7.50;99.90;;;;;;5135872;27;20413;-63
2022/01/16 12:22:55;;;;;;;17.85;7.25;;;7.50;99.90;;;;;;5153865;27;20046;-62
2022/01/16 12:25:22;;;;;;;18.95;7.22;;;7.60;99.90;;;;;;5146273;27;20049;-64
2022/01/16 12:28:10;;;;;;;14.30;6.88;;;7.60;99.90;;;;;;5138312;27;20053;-64
2022/01/16 12:30:48;;;;;;;16.65;6.97;;;7.50;99.90;;;;;;5132642;27;20137;-62
2022/01/16 12:33:53;;;;;;;18.02;6.93;;;7.50;99.90;;;;;;5134523;27;20553;-63
2022/01/16 12:36:30;;;;;;;16.35;7.00;;;7.50;99.90;;;;;;5136450;27;20110;-63
2022/01/16 12:39:06;;;;;;;13.20;6.72;;;7.60;99.90;;;;;;5122423;27;20049;-63
2022/01/16 12:41:45;;;;;;;18.75;6.80;;;7.50;99.90;;;;;;5119921;27;20487;-62
2022/01/16 12:44:13;;;;;;;17.90;6.18;;;7.50;99.90;;;;;;5156583;27;20034;-62
2022/01/16 12:46:48;;;;;;;15.00;7.03;;;7.50;99.90;;;;;;5138238;27;20366;-63
2022/01/16 12:49:23;;;;;;;14.10;7.07;;;7.60;99.90;;;;;;5147596;27;20107;-63
2022/01/16 12:51:51;;;;;;;16.83;7.00;;;7.60;99.90;;;;;;5117333;27;20050;-65
2022/01/16 12:54:23;;;;;;;13.27;6.68;;;7.50;99.90;;;;;;5117315;27;20123;-62
2022/01/16 12:56:56;;;;;;;17.65;6.82;;;7.60;99.90;;;;;;5117509;27;20103;-64
2022/01/16 12:59:24;;;;;;;15.10;6.37;;;7.50;99.90;;;;;;5127588;27;20678;-62
2022/01/16 13:01:57;;;;;;;15.02;6.28;;;7.60;99.90;;;;;;5137980;27;20280;-62
2022/01/16 13:04:26;;;;;;;16.08;6.45;;;7.60;99.90;;;;;;5128476;27;20058;-63
2022/01/16 13:06:57;;;;;;;16.83;6.60;;;7.70;99.90;;;;;;5135973;27;20086;-63
2022/01/16 13:09:23;;;;;;;17.48;6.47;;;7.60;99.90;;;;;;5117717;27;20042;-63
2022/01/16 13:11:51;;;;;;;17.75;7.07;;;7.60;99.90;;;;;;5117411;27;20039;-63
2022/01/16 13:14:26;;;;;;;14.52;5.88;;;7.60;99.90;;;;;;5120959;27;20041;-61
2022/01/16 13:16:54;;;;;;;16.77;6.88;;;7.60;99.90;;;;;;5155891;27;20054;-63